Gadsden, South Carolina
Current Conditions -  °F | °C
As of 8:58 PM on Tuesday 21 Oct 2014 (Local Time) from KMMT Reporting Station
Few Clouds Few Clouds  
Wind Chill: 60°   Ceiling: Unl
Heat Index: 60°   Visibility: 10mi
Dew Point: 52°   Wind: 0mph
Humidity: 76%   Direction: NA
Pressure: 29.91"   Gusts: NA
Location:  33.85°N, 80.77°W
Report Text: KMMT 220058Z 00000KT 10SM FEW070 16/11 A2991 RMK AO2A SLP131 T01550113
Loading
Personal Weather Stations






























Interactive Weather Map
Tropical Storm Tracking
New forecast layout! Learn more

10-Day Weather Forecast

Advertisements
Track Severe Weather on mobile